sensor_id;sensor_type;location;lat;lon;timestamp;pressure;altitude;pressure_sealevel;temperature;humidity
39891;BME280;25564;53.312;9.790;2022-09-09T00:02:20;100118.44;;;14.84;97.05
39891;BME280;25564;53.312;9.790;2022-09-09T00:07:47;100166.84;;;15.17;97.44
39891;BME280;25564;53.312;9.790;2022-09-09T00:10:29;100105.16;;;14.83;97.18
39891;BME280;25564;53.312;9.790;2022-09-09T00:18:24;100117.84;;;14.98;97.58
39891;BME280;25564;53.312;9.790;2022-09-09T00:21:15;100107.56;;;14.89;97.05
39891;BME280;25564;53.312;9.790;2022-09-09T00:23:54;100147.28;;;15.17;97.47
39891;BME280;25564;53.312;9.790;2022-09-09T00:31:43;100139.66;;;15.08;96.82
39891;BME280;25564;53.312;9.790;2022-09-09T00:34:18;100093.09;;;14.74;96.49
39891;BME280;25564;53.312;9.790;2022-09-09T00:36:52;100154.25;;;15.00;96.38
39891;BME280;25564;53.312;9.790;2022-09-09T00:42:26;100117.59;;;14.63;96.11
39891;BME280;25564;53.312;9.790;2022-09-09T00:45:28;100150.09;;;14.73;95.89
39891;BME280;25564;53.312;9.790;2022-09-09T00:48:12;100127.22;;;14.47;96.02
39891;BME280;25564;53.312;9.790;2022-09-09T00:50:53;100136.03;;;14.49;96.02
39891;BME280;25564;53.312;9.790;2022-09-09T00:53:55;100137.03;;;14.47;95.81
39891;BME280;25564;53.312;9.790;2022-09-09T00:59:50;100134.88;;;14.34;95.63
39891;BME280;25564;53.312;9.790;2022-09-09T01:02:42;100131.78;;;14.23;96.08
39891;BME280;25564;53.312;9.790;2022-09-09T01:05:27;100145.84;;;14.27;95.80
39891;BME280;25564;53.312;9.790;2022-09-09T01:08:04;100088.56;;;13.93;95.92
39891;BME280;25564;53.312;9.790;2022-09-09T01:10:53;100137.31;;;14.19;95.81
39891;BME280;25564;53.312;9.790;2022-09-09T01:13:28;100084.47;;;13.85;95.85
39891;BME280;25564;53.312;9.790;2022-09-09T01:16:08;100140.03;;;14.17;95.93
39891;BME280;25564;53.312;9.790;2022-09-09T01:18:48;100148.16;;;14.14;96.20
39891;BME280;25564;53.312;9.790;2022-09-09T01:24:04;100144.75;;;14.11;96.02
39891;BME280;25564;53.312;9.790;2022-09-09T01:26:42;100119.44;;;13.99;96.04
39891;BME280;25564;53.312;9.790;2022-09-09T01:29:16;100126.53;;;14.00;96.07
39891;BME280;25564;53.312;9.790;2022-09-09T01:34:30;100137.19;;;14.00;95.70
39891;BME280;25564;53.312;9.790;2022-09-09T01:37:05;100120.06;;;13.84;96.20
39891;BME280;25564;53.312;9.790;2022-09-09T01:39:40;100129.56;;;13.91;96.07
39891;BME280;25564;53.312;9.790;2022-09-09T01:42:15;100090.53;;;13.66;96.13
39891;BME280;25564;53.312;9.790;2022-09-09T01:44:47;100121.81;;;13.85;96.20
39891;BME280;25564;53.312;9.790;2022-09-09T01:47:18;100132.34;;;13.88;96.18
39891;BME280;25564;53.312;9.790;2022-09-09T01:49:50;100134.91;;;13.91;96.38
39891;BME280;25564;53.312;9.790;2022-09-09T01:52:21;100124.41;;;13.86;96.55
39891;BME280;25564;53.312;9.790;2022-09-09T01:54:53;100131.44;;;13.89;96.55
39891;BME280;25564;53.312;9.790;2022-09-09T01:57:29;100128.63;;;13.92;96.69
39891;BME280;25564;53.312;9.790;2022-09-09T02:00:10;100141.09;;;13.91;96.54
39891;BME280;25564;53.312;9.790;2022-09-09T02:02:52;100140.03;;;13.95;96.49
39891;BME280;25564;53.312;9.790;2022-09-09T02:05:41;100106.81;;;13.82;96.53
39891;BME280;25564;53.312;9.790;2022-09-09T02:08:26;100128.56;;;13.93;96.68
39891;BME280;25564;53.312;9.790;2022-09-09T02:11:06;100136.06;;;14.05;96.80
39891;BME280;25564;53.312;9.790;2022-09-09T02:13:39;100096.94;;;13.84;97.01
39891;BME280;25564;53.312;9.790;2022-09-09T02:16:38;100104.69;;;13.90;96.98
39891;BME280;25564;53.312;9.790;2022-09-09T02:19:20;100142.72;;;14.17;97.16
39891;BME280;25564;53.312;9.790;2022-09-09T02:21:57;100116.59;;;14.03;96.92
39891;BME280;25564;53.312;9.790;2022-09-09T02:24:34;100145.38;;;14.17;97.11
39891;BME280;25564;53.312;9.790;2022-09-09T02:27:08;100129.81;;;14.06;96.90
39891;BME280;25564;53.312;9.790;2022-09-09T02:29:42;100141.16;;;14.12;96.52
39891;BME280;25564;53.312;9.790;2022-09-09T02:32:16;100107.28;;;13.92;96.57
39891;BME280;25564;53.312;9.790;2022-09-09T02:34:53;100116.84;;;13.97;96.30
39891;BME280;25564;53.312;9.790;2022-09-09T02:37:31;100117.84;;;13.95;96.38
39891;BME280;25564;53.312;9.790;2022-09-09T02:40:09;100116.22;;;13.91;96.49
39891;BME280;25564;53.312;9.790;2022-09-09T02:42:44;100108.72;;;13.79;95.92
39891;BME280;25564;53.312;9.790;2022-09-09T02:45:18;100065.13;;;13.58;96.06
39891;BME280;25564;53.312;9.790;2022-09-09T02:48:04;100113.94;;;13.82;96.15
39891;BME280;25564;53.312;9.790;2022-09-09T02:50:45;100091.66;;;13.61;96.20
39891;BME280;25564;53.312;9.790;2022-09-09T02:53:27;100073.56;;;13.47;95.28
39891;BME280;25564;53.312;9.790;2022-09-09T02:56:09;100125.78;;;13.74;95.87
39891;BME280;25564;53.312;9.790;2022-09-09T02:58:45;100117.22;;;13.66;95.94
39891;BME280;25564;53.312;9.790;2022-09-09T03:01:17;100126.94;;;13.67;95.71
39891;BME280;25564;53.312;9.790;2022-09-09T03:03:49;100128.00;;;13.63;95.66
39891;BME280;25564;53.312;9.790;2022-09-09T03:06:20;100129.03;;;13.59;95.81
39891;BME280;25564;53.312;9.790;2022-09-09T03:08:53;100125.56;;;13.57;95.62
39891;BME280;25564;53.312;9.790;2022-09-09T03:11:26;100123.94;;;13.53;95.84
39891;BME280;25564;53.312;9.790;2022-09-09T03:13:58;100132.81;;;13.54;95.52
39891;BME280;25564;53.312;9.790;2022-09-09T03:16:30;100133.09;;;13.48;95.78
39891;BME280;25564;53.312;9.790;2022-09-09T03:19:01;100132.41;;;13.43;95.79
39891;BME280;25564;53.312;9.790;2022-09-09T03:21:33;100079.31;;;13.13;95.64
39891;BME280;25564;53.312;9.790;2022-09-09T03:24:04;100126.31;;;13.39;95.77
39891;BME280;25564;53.312;9.790;2022-09-09T03:26:37;100097.47;;;13.27;95.82
39891;BME280;25564;53.312;9.790;2022-09-09T03:29:09;100123.66;;;13.39;95.88
39891;BME280;25564;53.312;9.790;2022-09-09T03:31:40;100124.56;;;13.38;95.88
39891;BME280;25564;53.312;9.790;2022-09-09T03:34:12;100132.50;;;13.39;95.99
39891;BME280;25564;53.312;9.790;2022-09-09T03:36:57;100143.13;;;13.41;95.85
39891;BME280;25564;53.312;9.790;2022-09-09T03:39:29;100134.66;;;13.30;95.78
39891;BME280;25564;53.312;9.790;2022-09-09T03:42:01;100142.44;;;13.36;95.80
39891;BME280;25564;53.312;9.790;2022-09-09T03:44:35;100153.91;;;13.38;96.18
39891;BME280;25564;53.312;9.790;2022-09-09T03:47:06;100137.22;;;13.33;96.47
39891;BME280;25564;53.312;9.790;2022-09-09T03:49:38;100132.16;;;13.25;96.31
39891;BME280;25564;53.312;9.790;2022-09-09T03:52:09;100134.78;;;13.27;96.22
39891;BME280;25564;53.312;9.790;2022-09-09T03:54:41;100116.41;;;13.19;96.79
39891;BME280;25564;53.312;9.790;2022-09-09T03:57:13;100155.34;;;13.47;96.83
39891;BME280;25564;53.312;9.790;2022-09-09T03:59:47;100151.47;;;13.54;97.14
39891;BME280;25564;53.312;9.790;2022-09-09T04:02:19;100134.81;;;13.49;97.17
39891;BME280;25564;53.312;9.790;2022-09-09T04:04:50;100136.41;;;13.53;97.19
39891;BME280;25564;53.312;9.790;2022-09-09T04:07:22;100146.72;;;13.62;97.24
39891;BME280;25564;53.312;9.790;2022-09-09T04:09:53;100153.56;;;13.69;97.22
39891;BME280;25564;53.312;9.790;2022-09-09T04:12:25;100105.94;;;13.38;96.95
39891;BME280;25564;53.312;9.790;2022-09-09T04:14:57;100164.22;;;13.69;97.00
39891;BME280;25564;53.312;9.790;2022-09-09T04:17:28;100154.78;;;13.60;96.58
39891;BME280;25564;53.312;9.790;2022-09-09T04:20:00;100156.50;;;13.61;96.83
39891;BME280;25564;53.312;9.790;2022-09-09T04:22:32;100164.50;;;13.61;96.29
39891;BME280;25564;53.312;9.790;2022-09-09T04:25:05;100145.50;;;13.49;96.58
39891;BME280;25564;53.312;9.790;2022-09-09T04:27:37;100160.50;;;13.51;96.49
39891;BME280;25564;53.312;9.790;2022-09-09T04:30:09;100141.31;;;13.41;96.23
39891;BME280;25564;53.312;9.790;2022-09-09T04:32:41;100146.72;;;13.40;96.15
39891;BME280;25564;53.312;9.790;2022-09-09T04:35:13;100150.38;;;13.37;96.18
39891;BME280;25564;53.312;9.790;2022-09-09T04:37:44;100153.97;;;13.36;96.36
39891;BME280;25564;53.312;9.790;2022-09-09T04:40:16;100142.59;;;13.31;96.34
39891;BME280;25564;53.312;9.790;2022-09-09T04:42:47;100151.47;;;13.32;96.29
39891;BME280;25564;53.312;9.790;2022-09-09T04:45:19;100156.78;;;13.32;95.86
39891;BME280;25564;53.312;9.790;2022-09-09T04:47:51;100152.38;;;13.31;96.26
39891;BME280;25564;53.312;9.790;2022-09-09T04:50:22;100148.91;;;13.29;96.46
39891;BME280;25564;53.312;9.790;2022-09-09T04:52:54;100147.94;;;13.31;96.12
39891;BME280;25564;53.312;9.790;2022-09-09T04:55:25;100161.25;;;13.31;96.22
39891;BME280;25564;53.312;9.790;2022-09-09T04:57:57;100149.84;;;13.28;96.39
39891;BME280;25564;53.312;9.790;2022-09-09T05:00:28;100159.69;;;13.26;96.55
39891;BME280;25564;53.312;9.790;2022-09-09T05:03:03;100150.13;;;13.20;96.31
39891;BME280;25564;53.312;9.790;2022-09-09T05:05:35;100167.34;;;13.35;96.55
39891;BME280;25564;53.312;9.790;2022-09-09T05:08:08;100151.53;;;13.30;96.66
39891;BME280;25564;53.312;9.790;2022-09-09T05:10:40;100168.03;;;13.40;97.21
39891;BME280;25564;53.312;9.790;2022-09-09T05:13:12;100181.66;;;13.54;97.70
39891;BME280;25564;53.312;9.790;2022-09-09T05:15:52;100173.31;;;13.63;97.36
39891;BME280;25564;53.312;9.790;2022-09-09T05:18:24;100174.69;;;13.73;97.79
39891;BME280;25564;53.312;9.790;2022-09-09T05:20:59;100178.56;;;13.88;98.06
39891;BME280;25564;53.312;9.790;2022-09-09T05:23:32;100183.47;;;13.99;98.51
39891;BME280;25564;53.312;9.790;2022-09-09T05:26:05;100180.50;;;14.06;98.07
39891;BME280;25564;53.312;9.790;2022-09-09T05:28:37;100193.28;;;14.20;98.24
39891;BME280;25564;53.312;9.790;2022-09-09T05:31:11;100184.16;;;14.26;98.50
39891;BME280;25564;53.312;9.790;2022-09-09T05:33:45;100189.94;;;14.37;98.34
39891;BME280;25564;53.312;9.790;2022-09-09T05:36:19;100142.78;;;14.16;98.11
39891;BME280;25564;53.312;9.790;2022-09-09T05:38:51;100199.31;;;14.47;98.28
39891;BME280;25564;53.312;9.790;2022-09-09T05:41:25;100185.22;;;14.44;98.14
39891;BME280;25564;53.312;9.790;2022-09-09T05:43:56;100170.38;;;14.36;98.14
39891;BME280;25564;53.312;9.790;2022-09-09T05:46:29;100164.22;;;14.34;98.26
39891;BME280;25564;53.312;9.790;2022-09-09T05:49:02;100152.50;;;14.38;98.43
39891;BME280;25564;53.312;9.790;2022-09-09T05:51:35;100213.28;;;14.74;98.22
39891;BME280;25564;53.312;9.790;2022-09-09T05:54:06;100197.25;;;14.74;98.41
39891;BME280;25564;53.312;9.790;2022-09-09T05:56:37;100204.88;;;14.83;98.72
39891;BME280;25564;53.312;9.790;2022-09-09T05:59:09;100219.78;;;14.89;97.92
39891;BME280;25564;53.312;9.790;2022-09-09T06:01:40;100212.69;;;14.88;98.25
39891;BME280;25564;53.312;9.790;2022-09-09T06:04:12;100206.53;;;14.86;97.84
39891;BME280;25564;53.312;9.790;2022-09-09T06:06:43;100217.03;;;14.90;97.90
39891;BME280;25564;53.312;9.790;2022-09-09T06:09:15;100179.44;;;14.75;97.81
39891;BME280;25564;53.312;9.790;2022-09-09T06:11:46;100212.22;;;14.98;97.66
39891;BME280;25564;53.312;9.790;2022-09-09T06:14:17;100195.78;;;14.87;97.73
39891;BME280;25564;53.312;9.790;2022-09-09T06:16:49;100221.56;;;15.09;97.83
39891;BME280;25564;53.312;9.790;2022-09-09T06:19:20;100206.63;;;15.04;97.96
39891;BME280;25564;53.312;9.790;2022-09-09T06:21:52;100224.44;;;15.24;98.46
39891;BME280;25564;53.312;9.790;2022-09-09T06:24:23;100184.03;;;15.12;98.30
39891;BME280;25564;53.312;9.790;2022-09-09T06:26:55;100176.59;;;15.18;98.33
39891;BME280;25564;53.312;9.790;2022-09-09T06:29:27;100232.97;;;15.53;98.96
39891;BME280;25564;53.312;9.790;2022-09-09T06:31:58;100233.41;;;15.62;98.36
39891;BME280;25564;53.312;9.790;2022-09-09T06:34:30;100226.19;;;15.64;98.66
39891;BME280;25564;53.312;9.790;2022-09-09T06:37:01;100184.88;;;15.51;98.70
39891;BME280;25564;53.312;9.790;2022-09-09T06:39:33;100233.22;;;15.86;98.63
39891;BME280;25564;53.312;9.790;2022-09-09T06:42:04;100195.53;;;15.72;98.55
39891;BME280;25564;53.312;9.790;2022-09-09T06:44:36;100245.72;;;16.04;98.60
39891;BME280;25564;53.312;9.790;2022-09-09T06:47:07;100237.56;;;16.07;98.45
39891;BME280;25564;53.312;9.790;2022-09-09T06:49:39;100245.44;;;16.10;98.23
39891;BME280;25564;53.312;9.790;2022-09-09T06:52:10;100231.25;;;16.08;98.11
39891;BME280;25564;53.312;9.790;2022-09-09T06:54:41;100243.25;;;16.18;97.95
39891;BME280;25564;53.312;9.790;2022-09-09T06:57:13;100216.06;;;16.09;98.21
39891;BME280;25564;53.312;9.790;2022-09-09T07:00:04;100246.06;;;16.34;98.08
39891;BME280;25564;53.312;9.790;2022-09-09T07:02:36;100235.56;;;16.29;97.76
39891;BME280;25564;53.312;9.790;2022-09-09T07:05:10;100234.25;;;16.38;98.15
39891;BME280;25564;53.312;9.790;2022-09-09T07:07:42;100236.56;;;16.46;98.39
39891;BME280;25564;53.312;9.790;2022-09-09T07:10:14;100238.00;;;16.53;98.32
39891;BME280;25564;53.312;9.790;2022-09-09T07:12:50;100189.81;;;16.34;98.28
39891;BME280;25564;53.312;9.790;2022-09-09T07:15:22;100238.25;;;16.65;98.20
39891;BME280;25564;53.312;9.790;2022-09-09T07:17:54;100243.31;;;16.72;98.17
39891;BME280;25564;53.312;9.790;2022-09-09T07:20:25;100241.09;;;16.80;98.31
39891;BME280;25564;53.312;9.790;2022-09-09T07:22:57;100251.13;;;16.93;98.17
39891;BME280;25564;53.312;9.790;2022-09-09T07:25:29;100207.91;;;16.82;98.55
39891;BME280;25564;53.312;9.790;2022-09-09T07:28:01;100247.88;;;17.21;98.64
39891;BME280;25564;53.312;9.790;2022-09-09T07:30:33;100230.84;;;17.22;98.92
39891;BME280;25564;53.312;9.790;2022-09-09T07:33:04;100257.31;;;17.46;98.82
39891;BME280;25564;53.312;9.790;2022-09-09T07:35:36;100238.13;;;17.53;99.31
39891;BME280;25564;53.312;9.790;2022-09-09T07:38:08;100246.34;;;17.68;98.99
39891;BME280;25564;53.312;9.790;2022-09-09T07:40:40;100247.03;;;17.87;99.30
39891;BME280;25564;53.312;9.790;2022-09-09T07:43:12;100243.50;;;18.02;98.86
39891;BME280;25564;53.312;9.790;2022-09-09T07:45:47;100211.53;;;17.97;99.50
39891;BME280;25564;53.312;9.790;2022-09-09T07:48:21;100259.44;;;18.37;98.58
39891;BME280;25564;53.312;9.790;2022-09-09T07:50:52;100264.72;;;18.54;99.28
39891;BME280;25564;53.312;9.790;2022-09-09T07:53:23;100252.75;;;18.59;98.70
39891;BME280;25564;53.312;9.790;2022-09-09T07:55:55;100244.63;;;18.61;98.82
39891;BME280;25564;53.312;9.790;2022-09-09T07:58:26;100254.69;;;18.87;98.97
39891;BME280;25564;53.312;9.790;2022-09-09T08:00:58;100250.72;;;19.09;99.34
39891;BME280;25564;53.312;9.790;2022-09-09T08:03:29;100263.25;;;19.24;98.46
39891;BME280;25564;53.312;9.790;2022-09-09T08:06:06;100237.13;;;19.26;98.58
39891;BME280;25564;53.312;9.790;2022-09-09T08:08:39;100252.53;;;19.38;97.32
39891;BME280;25564;53.312;9.790;2022-09-09T08:11:14;100254.25;;;19.39;97.20
39891;BME280;25564;53.312;9.790;2022-09-09T08:13:49;100265.84;;;19.55;97.21
39891;BME280;25564;53.312;9.790;2022-09-09T08:16:27;100249.69;;;19.55;96.63
39891;BME280;25564;53.312;9.790;2022-09-09T08:18:59;100286.69;;;19.80;96.51
39891;BME280;25564;53.312;9.790;2022-09-09T08:21:32;100269.28;;;19.86;96.48
39891;BME280;25564;53.312;9.790;2022-09-09T08:24:04;100235.84;;;19.76;96.54
39891;BME280;25564;53.312;9.790;2022-09-09T08:26:41;100235.25;;;19.85;95.58
39891;BME280;25564;53.312;9.790;2022-09-09T08:29:13;100253.97;;;20.01;96.16
39891;BME280;25564;53.312;9.790;2022-09-09T08:31:47;100282.53;;;20.32;96.22
39891;BME280;25564;53.312;9.790;2022-09-09T08:34:18;100268.56;;;20.25;96.13
39891;BME280;25564;53.312;9.790;2022-09-09T08:36:51;100242.78;;;20.21;96.08
39891;BME280;25564;53.312;9.790;2022-09-09T08:39:23;100265.53;;;20.58;95.56
39891;BME280;25564;53.312;9.790;2022-09-09T08:42:16;100272.81;;;20.70;95.03
39891;BME280;25564;53.312;9.790;2022-09-09T08:47:51;100286.91;;;21.01;95.05
39891;BME280;25564;53.312;9.790;2022-09-09T08:50:28;100260.91;;;21.00;94.57
39891;BME280;25564;53.312;9.790;2022-09-09T08:53:11;100275.28;;;21.13;93.61
39891;BME280;25564;53.312;9.790;2022-09-09T08:55:48;100268.59;;;21.06;92.58
39891;BME280;25564;53.312;9.790;2022-09-09T08:58:26;100271.72;;;21.12;92.99
39891;BME280;25564;53.312;9.790;2022-09-09T09:03:52;100271.63;;;21.14;92.29
39891;BME280;25564;53.312;9.790;2022-09-09T09:12:05;100260.69;;;21.68;92.25
39891;BME280;25564;53.312;9.790;2022-09-09T09:14:41;100291.47;;;22.03;91.49
39891;BME280;25564;53.312;9.790;2022-09-09T09:17:20;100272.34;;;22.06;90.94
39891;BME280;25564;53.312;9.790;2022-09-09T09:19:53;100291.75;;;22.24;90.30
39891;BME280;25564;53.312;9.790;2022-09-09T09:22:50;100294.13;;;22.29;89.47
39891;BME280;25564;53.312;9.790;2022-09-09T09:25:27;100285.72;;;22.21;89.02
39891;BME280;25564;53.312;9.790;2022-09-09T09:28:14;100291.13;;;21.95;88.63
39891;BME280;25564;53.312;9.790;2022-09-09T09:31:03;100280.97;;;21.86;88.59
39891;BME280;25564;53.312;9.790;2022-09-09T09:33:49;100282.78;;;21.98;88.96
39891;BME280;25564;53.312;9.790;2022-09-09T09:36:24;100280.53;;;22.17;88.67
39891;BME280;25564;53.312;9.790;2022-09-09T09:39:04;100281.22;;;22.45;88.75
39891;BME280;25564;53.312;9.790;2022-09-09T09:41:57;100293.03;;;22.68;88.14
39891;BME280;25564;53.312;9.790;2022-09-09T09:44:36;100271.75;;;22.63;87.77
39891;BME280;25564;53.312;9.790;2022-09-09T09:47:12;100287.63;;;22.92;86.69
39891;BME280;25564;53.312;9.790;2022-09-09T09:49:57;100288.81;;;23.11;86.33
39891;BME280;25564;53.312;9.790;2022-09-09T09:52:31;100285.22;;;23.35;86.74
39891;BME280;25564;53.312;9.790;2022-09-09T09:55:04;100260.72;;;23.36;85.31
39891;BME280;25564;53.312;9.790;2022-09-09T09:57:38;100271.56;;;23.47;85.19
39891;BME280;25564;53.312;9.790;2022-09-09T10:00:19;100274.72;;;23.65;84.68
39891;BME280;25564;53.312;9.790;2022-09-09T10:02:51;100296.53;;;23.86;84.18
39891;BME280;25564;53.312;9.790;2022-09-09T10:05:26;100288.28;;;23.88;83.00
39891;BME280;25564;53.312;9.790;2022-09-09T10:08:11;100253.84;;;23.43;82.90
39891;BME280;25564;53.312;9.790;2022-09-09T10:11:06;100271.78;;;23.33;82.40
39891;BME280;25564;53.312;9.790;2022-09-09T10:17:01;100275.75;;;23.05;83.71
39891;BME280;25564;53.312;9.790;2022-09-09T10:19:37;100283.00;;;23.05;84.14
39891;BME280;25564;53.312;9.790;2022-09-09T10:22:26;100287.66;;;23.27;84.70
39891;BME280;25564;53.312;9.790;2022-09-09T10:25:11;100283.63;;;23.43;84.07
39891;BME280;25564;53.312;9.790;2022-09-09T10:28:04;100284.94;;;23.62;83.66
39891;BME280;25564;53.312;9.790;2022-09-09T10:31:18;100286.66;;;23.96;83.62
39891;BME280;25564;53.312;9.790;2022-09-09T10:33:51;100293.09;;;24.29;83.30
39891;BME280;25564;53.312;9.790;2022-09-09T10:36:25;100281.84;;;24.56;81.79
39891;BME280;25564;53.312;9.790;2022-09-09T10:39:06;100287.22;;;24.78;81.11
39891;BME280;25564;53.312;9.790;2022-09-09T10:42:05;100256.34;;;24.47;79.44
39891;BME280;25564;53.312;9.790;2022-09-09T10:44:57;100269.16;;;24.45;80.05
39891;BME280;25564;53.312;9.790;2022-09-09T10:50:52;100283.72;;;24.33;79.43
39891;BME280;25564;53.312;9.790;2022-09-09T10:56:36;100262.03;;;24.33;78.32
39891;BME280;25564;53.312;9.790;2022-09-09T10:59:14;100263.59;;;24.47;77.33
39891;BME280;25564;53.312;9.790;2022-09-09T11:02:00;100272.13;;;24.42;76.85
39891;BME280;25564;53.312;9.790;2022-09-09T11:04:41;100258.94;;;24.37;76.07
39891;BME280;25564;53.312;9.790;2022-09-09T11:07:25;100237.59;;;24.22;75.50
39891;BME280;25564;53.312;9.790;2022-09-09T11:10:03;100249.06;;;24.25;74.03
39891;BME280;25564;53.312;9.790;2022-09-09T11:12:39;100253.88;;;24.22;72.57
39891;BME280;25564;53.312;9.790;2022-09-09T11:15:20;100245.38;;;24.15;72.13
39891;BME280;25564;53.312;9.790;2022-09-09T11:17:56;100248.19;;;24.25;71.41
39891;BME280;25564;53.312;9.790;2022-09-09T11:20:29;100278.78;;;24.49;70.98
39891;BME280;25564;53.312;9.790;2022-09-09T11:23:11;100237.50;;;24.34;70.55
39891;BME280;25564;53.312;9.790;2022-09-09T11:25:57;100245.84;;;24.54;69.96
39891;BME280;25564;53.312;9.790;2022-09-09T11:31:44;100250.56;;;24.84;67.91
39891;BME280;25564;53.312;9.790;2022-09-09T11:34:27;100273.91;;;25.07;68.22
39891;BME280;25564;53.312;9.790;2022-09-09T11:37:12;100265.56;;;25.20;67.54
39891;BME280;25564;53.312;9.790;2022-09-09T11:40:06;100286.31;;;25.62;67.38
39891;BME280;25564;53.312;9.790;2022-09-09T11:42:39;100273.94;;;25.69;66.07
39891;BME280;25564;53.312;9.790;2022-09-09T11:45:24;100277.72;;;25.78;64.82
39891;BME280;25564;53.312;9.790;2022-09-09T11:47:59;100254.91;;;25.49;64.19
39891;BME280;25564;53.312;9.790;2022-09-09T11:50:37;100245.69;;;25.19;64.23
39891;BME280;25564;53.312;9.790;2022-09-09T11:53:20;100272.84;;;25.19;63.98
39891;BME280;25564;53.312;9.790;2022-09-09T11:58:55;100274.75;;;25.07;63.02
39891;BME280;25564;53.312;9.790;2022-09-09T12:01:30;100262.56;;;25.02;63.01
39891;BME280;25564;53.312;9.790;2022-09-09T12:06:44;100261.72;;;25.22;63.18
39891;BME280;25564;53.312;9.790;2022-09-09T12:17:53;100219.69;;;24.53;64.42
39891;BME280;25564;53.312;9.790;2022-09-09T12:26:05;100283.25;;;23.83;66.47
39891;BME280;25564;53.312;9.790;2022-09-09T12:28:47;100252.13;;;23.42;67.34
39891;BME280;25564;53.312;9.790;2022-09-09T12:31:44;100233.66;;;23.01;67.82
39891;BME280;25564;53.312;9.790;2022-09-09T12:37:24;100279.41;;;22.69;68.88
39891;BME280;25564;53.312;9.790;2022-09-09T12:40:00;100264.81;;;22.35;69.44
39891;BME280;25564;53.312;9.790;2022-09-09T12:42:33;100259.56;;;22.08;70.28
39891;BME280;25564;53.312;9.790;2022-09-09T12:45:31;100283.13;;;22.06;70.70
39891;BME280;25564;53.312;9.790;2022-09-09T12:48:07;100305.72;;;21.93;70.52
39891;BME280;25564;53.312;9.790;2022-09-09T12:50:46;100298.06;;;21.74;71.22
39891;BME280;25564;53.312;9.790;2022-09-09T12:53:23;100312.00;;;21.55;72.18
39891;BME280;25564;53.312;9.790;2022-09-09T12:56:06;100247.88;;;21.06;72.33
39891;BME280;25564;53.312;9.790;2022-09-09T12:58:45;100314.22;;;21.23;72.98
39891;BME280;25564;53.312;9.790;2022-09-09T13:01:23;100271.22;;;20.80;73.42
39891;BME280;25564;53.312;9.790;2022-09-09T13:03:56;100263.09;;;20.68;73.83
39891;BME280;25564;53.312;9.790;2022-09-09T13:06:29;100302.94;;;20.77;73.82
39891;BME280;25564;53.312;9.790;2022-09-09T13:09:02;100302.03;;;20.64;74.38
39891;BME280;25564;53.312;9.790;2022-09-09T13:11:38;100317.72;;;20.57;74.52
39891;BME280;25564;53.312;9.790;2022-09-09T13:14:32;100311.75;;;20.38;74.51
39891;BME280;25564;53.312;9.790;2022-09-09T13:17:06;100257.84;;;19.97;75.09
39891;BME280;25564;53.312;9.790;2022-09-09T13:19:48;100330.19;;;20.17;75.20
39891;BME280;25564;53.312;9.790;2022-09-09T13:22:37;100327.19;;;20.07;75.64
39891;BME280;25564;53.312;9.790;2022-09-09T13:27:55;100281.63;;;19.62;75.55
39891;BME280;25564;53.312;9.790;2022-09-09T13:30:28;100338.72;;;19.81;75.82
39891;BME280;25564;53.312;9.790;2022-09-09T13:36:01;100261.44;;;19.24;76.25
39891;BME280;25564;53.312;9.790;2022-09-09T13:38:53;100307.03;;;19.42;76.20
39891;BME280;25564;53.312;9.790;2022-09-09T13:41:32;100295.72;;;19.21;76.28
39891;BME280;25564;53.312;9.790;2022-09-09T13:44:04;100300.69;;;19.13;76.42
39891;BME280;25564;53.312;9.790;2022-09-09T13:46:39;100286.19;;;18.85;76.54
39891;BME280;25564;53.312;9.790;2022-09-09T13:51:45;100305.72;;;18.57;76.83
39891;BME280;25564;53.312;9.790;2022-09-09T13:54:19;100307.03;;;18.35;77.01
39891;BME280;25564;53.312;9.790;2022-09-09T13:56:51;100305.53;;;18.13;78.27
39891;BME280;25564;53.312;9.790;2022-09-09T13:59:22;100289.13;;;17.86;77.96
39891;BME280;25564;53.312;9.790;2022-09-09T14:02:13;100296.00;;;17.75;78.67
39891;BME280;25564;53.312;9.790;2022-09-09T14:04:45;100249.50;;;17.41;78.89
39891;BME280;25564;53.312;9.790;2022-09-09T14:07:18;100293.03;;;17.63;79.77
39891;BME280;25564;53.312;9.790;2022-09-09T14:09:49;100294.47;;;17.53;80.54
39891;BME280;25564;53.312;9.790;2022-09-09T14:12:22;100275.41;;;17.42;81.35
39891;BME280;25564;53.312;9.790;2022-09-09T14:14:54;100256.72;;;17.23;82.30
39891;BME280;25564;53.312;9.790;2022-09-09T14:17:25;100257.50;;;17.25;83.29
39891;BME280;25564;53.312;9.790;2022-09-09T14:20:03;100223.53;;;17.09;84.71
39891;BME280;25564;53.312;9.790;2022-09-09T14:22:39;100249.53;;;17.24;85.30
39891;BME280;25564;53.312;9.790;2022-09-09T14:25:10;100234.56;;;17.20;86.05
39891;BME280;25564;53.312;9.790;2022-09-09T14:27:44;100238.72;;;17.25;86.16
39891;BME280;25564;53.312;9.790;2022-09-09T14:30:17;100260.25;;;17.41;86.87
39891;BME280;25564;53.312;9.790;2022-09-09T14:32:48;100257.56;;;17.41;86.96
39891;BME280;25564;53.312;9.790;2022-09-09T14:35:19;100243.44;;;17.38;86.99
39891;BME280;25564;53.312;9.790;2022-09-09T14:37:51;100224.13;;;17.31;87.49
39891;BME280;25564;53.312;9.790;2022-09-09T14:40:22;100248.88;;;17.53;87.96
39891;BME280;25564;53.312;9.790;2022-09-09T14:42:54;100244.13;;;17.58;88.01
39891;BME280;25564;53.312;9.790;2022-09-09T14:45:26;100249.78;;;17.70;87.65
39891;BME280;25564;53.312;9.790;2022-09-09T14:47:58;100261.81;;;17.78;88.97
39891;BME280;25564;53.312;9.790;2022-09-09T14:50:30;100252.91;;;17.78;88.29
39891;BME280;25564;53.312;9.790;2022-09-09T14:53:02;100255.09;;;17.87;88.34
39891;BME280;25564;53.312;9.790;2022-09-09T14:55:33;100210.47;;;17.69;88.54
39891;BME280;25564;53.312;9.790;2022-09-09T14:58:05;100231.09;;;17.84;88.28